Time;durP1;ratioP1;P1;durP2;ratioP2;P2;SDS_P1;SDS_P2;PMS_P1;PMS_P2;Temp;Humidity;BMP_temperature;BMP_pressure;BME280_temperature;BME280_humidity;BME280_pressure;Samples;Min_cycle;Max_cycle;Signal;HPM_P1;HPM_P2
2024/01/14 05:02:03;;;;;;;;;;;;;;;;;;;;;
2024/01/14 05:05:13;;;;;;;2.20;1.40;;;2.00;97.30;;;;;;4972296;28;20558;-95
2024/01/14 05:07:46;;;;;;;4.73;1.43;;;1.90;97.30;;;;;;4970393;28;20453;-95
2024/01/14 05:10:15;;;;;;;4.37;1.93;;;1.90;97.30;;;;;;4979832;28;20427;-95
2024/01/14 05:13:13;;;;;;;2.83;1.63;;;1.90;97.30;;;;;;4978292;28;20435;-95
2024/01/14 05:16:16;;;;;;;1.83;1.70;;;1.90;97.30;;;;;;4959705;28;20406;-93
2024/01/14 05:18:56;;;;;;;1.70;1.47;;;1.80;97.30;;;;;;4965476;28;20422;-96
2024/01/14 05:21:25;;;;;;;2.20;2.00;;;1.80;97.30;;;;;;4978538;28;20442;-94
2024/01/14 05:27:35;;;;;;;2.27;1.93;;;1.80;97.30;;;;;;4977050;28;20836;-94
2024/01/14 05:30:04;;;;;;;2.73;1.80;;;1.80;97.30;;;;;;4974278;28;20438;-96
2024/01/14 05:32:30;;;;;;;2.07;1.87;;;1.80;97.30;;;;;;4990023;23;21012;-66
2024/01/14 05:34:55;;;;;;;6.73;2.60;;;1.80;97.30;;;;;;4968481;28;20438;-73
2024/01/14 05:37:21;;;;;;;1.40;1.30;;;1.80;97.30;;;;;;4967908;28;20178;-67
2024/01/14 05:39:46;;;;;;;3.00;1.73;;;1.80;97.30;;;;;;4968222;28;20677;-67
2024/01/14 05:42:12;;;;;;;1.30;1.20;;;1.80;97.30;;;;;;4970985;28;20235;-67
2024/01/14 05:44:37;;;;;;;1.17;1.07;;;1.70;97.30;;;;;;4971698;28;20621;-69
2024/01/14 05:47:03;;;;;;;1.37;1.27;;;1.70;97.30;;;;;;4980562;28;20213;-69
2024/01/14 05:49:29;;;;;;;1.77;1.67;;;1.70;97.30;;;;;;4971433;28;20544;-66
2024/01/14 05:51:54;;;;;;;2.03;1.90;;;1.70;97.30;;;;;;4971799;28;20667;-66
2024/01/14 05:54:20;;;;;;;4.20;1.80;;;1.70;97.30;;;;;;4972731;28;20561;-68
2024/01/14 05:56:45;;;;;;;6.20;4.50;;;1.70;97.30;;;;;;4972941;28;20178;-69
2024/01/14 05:59:11;;;;;;;1.33;1.23;;;1.70;97.30;;;;;;4979058;28;20177;-66
2024/01/14 06:01:37;;;;;;;0.90;0.80;;;1.70;97.30;;;;;;4971152;28;20721;-66
2024/01/14 06:04:03;;;;;;;1.93;1.83;;;1.70;97.30;;;;;;4971381;28;20213;-68
2024/01/14 06:06:28;;;;;;;2.03;1.77;;;1.70;97.30;;;;;;4971376;28;20213;-65
2024/01/14 06:08:54;;;;;;;1.43;1.33;;;1.70;97.30;;;;;;4971191;28;20461;-65
2024/01/14 06:11:19;;;;;;;2.30;2.10;;;1.60;97.30;;;;;;4975006;28;20222;-66
2024/01/14 06:13:46;;;;;;;1.50;1.40;;;1.60;97.30;;;;;;4976459;28;20210;-67
2024/01/14 06:16:11;;;;;;;1.20;1.10;;;1.60;97.30;;;;;;4972283;28;20426;-66
2024/01/14 06:18:39;;;;;;;3.97;2.97;;;1.50;97.30;;;;;;4970353;28;20179;-65
2024/01/14 06:21:05;;;;;;;1.23;1.13;;;1.50;97.30;;;;;;4971809;28;20210;-66
2024/01/14 06:23:31;;;;;;;1.40;1.30;;;1.50;97.30;;;;;;4972170;28;20977;-67
2024/01/14 06:25:56;;;;;;;1.57;1.47;;;1.50;97.30;;;;;;4971238;28;20704;-68
2024/01/14 06:28:22;;;;;;;1.00;0.90;;;1.50;97.30;;;;;;4972042;28;20659;-66
2024/01/14 06:30:48;;;;;;;3.07;2.20;;;1.50;97.30;;;;;;4969145;28;20698;-67
2024/01/14 06:33:14;;;;;;;0.90;0.80;;;1.50;97.30;;;;;;4970874;28;20186;-68
2024/01/14 06:35:39;;;;;;;3.50;2.13;;;1.60;97.30;;;;;;4976589;28;20392;-64
2024/01/14 06:38:06;;;;;;;1.70;1.67;;;1.60;97.30;;;;;;4970208;28;20599;-67
2024/01/14 06:40:32;;;;;;;2.80;2.07;;;1.60;97.30;;;;;;4970604;28;20202;-65
2024/01/14 06:42:57;;;;;;;3.27;1.63;;;1.60;97.30;;;;;;4976954;28;20469;-67
2024/01/14 06:45:23;;;;;;;1.67;1.57;;;1.60;97.30;;;;;;4973332;28;20666;-67
2024/01/14 06:47:48;;;;;;;1.37;1.27;;;1.70;97.30;;;;;;4975444;28;20182;-67
2024/01/14 06:50:14;;;;;;;2.30;2.10;;;1.70;97.30;;;;;;4979157;28;20178;-66
2024/01/14 06:52:40;;;;;;;4.20;2.70;;;1.70;97.30;;;;;;4969351;28;20183;-66
2024/01/14 06:55:06;;;;;;;4.20;1.97;;;1.70;97.30;;;;;;4970176;28;20175;-68
2024/01/14 06:57:32;;;;;;;5.40;3.77;;;1.70;97.30;;;;;;4970094;28;20422;-66
2024/01/14 07:00:04;;;;;;;1.30;1.20;;;1.70;97.30;;;;;;4971667;28;20209;-67
2024/01/14 07:02:30;;;;;;;3.37;2.50;;;1.70;97.30;;;;;;4971782;28;20456;-66
2024/01/14 07:04:56;;;;;;;1.13;1.03;;;1.70;97.30;;;;;;4971474;28;20433;-66
2024/01/14 07:07:22;;;;;;;1.90;1.80;;;1.70;97.30;;;;;;4970189;28;20189;-68
2024/01/14 07:09:49;;;;;;;2.50;1.33;;;1.70;97.30;;;;;;4978318;28;20245;-67
2024/01/14 07:12:14;;;;;;;1.90;1.67;;;1.70;97.30;;;;;;4977815;28;20705;-64
2024/01/14 07:14:40;;;;;;;2.50;1.30;;;1.70;97.30;;;;;;4971570;28;20982;-70
2024/01/14 07:17:06;;;;;;;1.30;1.20;;;1.70;97.30;;;;;;4969553;28;20678;-64
2024/01/14 07:19:31;;;;;;;1.03;1.00;;;1.70;97.30;;;;;;4970245;28;20658;-64
2024/01/14 07:21:57;;;;;;;1.67;1.57;;;1.70;97.30;;;;;;4970931;28;20682;-67
2024/01/14 07:24:22;;;;;;;0.80;0.70;;;1.70;97.30;;;;;;4972347;28;20681;-66
2024/01/14 07:26:48;;;;;;;1.47;1.33;;;1.80;97.30;;;;;;4975225;28;20206;-66
2024/01/14 07:29:13;;;;;;;6.10;2.60;;;1.80;97.30;;;;;;4969807;28;20205;-66
2024/01/14 07:31:39;;;;;;;4.53;2.90;;;1.80;97.30;;;;;;4976784;28;20242;-66
2024/01/14 07:34:05;;;;;;;1.90;1.73;;;1.80;97.30;;;;;;4970318;28;20686;-67
2024/01/14 07:36:31;;;;;;;1.60;1.50;;;1.80;97.30;;;;;;4968571;28;20178;-66
2024/01/14 07:38:58;;;;;;;2.33;1.20;;;1.80;97.30;;;;;;4969678;28;20434;-66
2024/01/14 07:41:24;;;;;;;2.40;1.30;;;1.80;97.30;;;;;;4969577;28;20868;-66
2024/01/14 07:43:50;;;;;;;2.03;1.93;;;1.80;97.30;;;;;;4959521;28;20862;-67
2024/01/14 07:46:15;;;;;;;1.67;1.57;;;1.80;97.30;;;;;;4972778;28;20429;-65
2024/01/14 07:48:42;;;;;;;1.00;0.90;;;1.80;97.30;;;;;;4968886;28;20187;-66
2024/01/14 07:51:07;;;;;;;1.00;0.90;;;1.90;97.30;;;;;;4977313;28;20811;-69
2024/01/14 07:53:33;;;;;;;3.03;2.83;;;1.80;97.30;;;;;;4968490;28;20714;-66
2024/01/14 07:55:58;;;;;;;2.73;2.10;;;1.80;97.30;;;;;;4970368;28;20186;-67
2024/01/14 07:58:24;;;;;;;1.00;0.90;;;1.70;97.30;;;;;;4985017;28;20178;-70
2024/01/14 08:00:50;;;;;;;1.27;1.10;;;1.60;97.30;;;;;;4969304;28;20206;-66
2024/01/14 08:03:15;;;;;;;0.90;0.80;;;1.50;97.30;;;;;;4969280;28;20194;-66
2024/01/14 08:05:42;;;;;;;1.97;1.77;;;1.50;97.30;;;;;;4969833;28;20469;-66
2024/01/14 08:08:08;;;;;;;1.80;1.70;;;1.50;97.30;;;;;;4969465;28;20187;-66
2024/01/14 08:10:34;;;;;;;0.87;0.77;;;1.50;97.30;;;;;;4977295;28;20513;-65
2024/01/14 08:13:00;;;;;;;1.50;1.40;;;1.60;97.30;;;;;;4976391;28;20865;-67
2024/01/14 08:15:25;;;;;;;1.90;1.80;;;1.60;97.30;;;;;;4969720;28;20194;-65
2024/01/14 08:17:51;;;;;;;1.20;1.10;;;1.50;97.30;;;;;;4970336;28;20186;-66
2024/01/14 08:20:16;;;;;;;1.57;1.47;;;1.50;97.30;;;;;;4969846;28;20174;-67
2024/01/14 08:22:42;;;;;;;0.90;0.80;;;1.50;97.30;;;;;;4981309;28;20554;-66
2024/01/14 08:25:09;;;;;;;1.37;1.27;;;1.50;97.30;;;;;;4973524;28;20185;-64
2024/01/14 08:27:35;;;;;;;2.30;1.37;;;1.50;97.30;;;;;;4973724;28;20429;-67
2024/01/14 08:30:01;;;;;;;3.23;3.07;;;1.60;97.30;;;;;;4973145;28;20435;-66
2024/01/14 08:32:27;;;;;;;0.90;0.80;;;1.60;97.30;;;;;;4968095;28;20485;-66
2024/01/14 08:34:52;;;;;;;1.20;1.10;;;1.60;97.30;;;;;;4968732;28;20191;-66
2024/01/14 08:37:18;;;;;;;1.03;1.00;;;1.70;97.30;;;;;;4969581;28;20218;-65
2024/01/14 08:39:43;;;;;;;2.20;2.03;;;1.70;97.30;;;;;;4968765;28;20670;-68
2024/01/14 08:42:09;;;;;;;1.07;0.97;;;1.70;97.30;;;;;;4976199;28;20203;-69
2024/01/14 08:44:34;;;;;;;4.17;1.80;;;1.80;97.30;;;;;;4969844;28;20195;-66
2024/01/14 08:47:01;;;;;;;1.33;1.23;;;1.80;97.30;;;;;;4968881;28;20286;-66
2024/01/14 08:49:29;;;;;;;1.30;1.20;;;1.90;97.30;;;;;;4968444;28;20237;-66
2024/01/14 08:51:59;;;;;;;1.73;1.63;;;1.90;97.30;;;;;;4974617;28;20460;-66
2024/01/14 08:54:24;;;;;;;5.13;3.57;;;1.90;97.30;;;;;;4978165;28;20436;-65
2024/01/14 08:56:50;;;;;;;1.97;1.87;;;1.90;97.30;;;;;;4968747;28;20430;-67
2024/01/14 08:59:15;;;;;;;2.40;1.40;;;2.00;97.30;;;;;;4976427;28;20186;-64
2024/01/14 09:01:41;;;;;;;5.67;3.43;;;2.00;97.30;;;;;;4977742;28;20551;-67
2024/01/14 09:04:06;;;;;;;1.33;1.27;;;2.00;97.30;;;;;;4970197;28;20887;-67
2024/01/14 09:06:32;;;;;;;0.90;0.80;;;2.00;97.30;;;;;;4968447;28;20317;-66
2024/01/14 09:08:57;;;;;;;1.10;1.00;;;2.10;97.30;;;;;;4964227;28;20286;-66
2024/01/14 09:11:23;;;;;;;3.00;1.17;;;2.00;97.30;;;;;;4967292;28;20210;-66
2024/01/14 09:13:48;;;;;;;0.90;0.80;;;2.00;97.30;;;;;;4967197;28;20643;-66
2024/01/14 09:16:14;;;;;;;1.83;1.77;;;2.00;97.30;;;;;;4968037;28;20179;-66
2024/01/14 09:18:40;;;;;;;1.53;1.33;;;2.00;97.30;;;;;;4979527;28;20178;-64
2024/01/14 09:21:05;;;;;;;2.97;1.67;;;2.10;97.30;;;;;;4988304;28;20707;-64
2024/01/14 09:23:31;;;;;;;1.73;1.63;;;2.10;97.30;;;;;;4973606;28;20190;-66
2024/01/14 09:25:58;;;;;;;2.57;2.37;;;2.10;97.30;;;;;;4973585;28;20525;-65
2024/01/14 09:28:24;;;;;;;1.47;1.37;;;2.10;97.30;;;;;;4980950;28;20435;-66
2024/01/14 09:30:50;;;;;;;6.73;2.20;;;2.10;97.30;;;;;;4971687;28;20601;-67
2024/01/14 09:33:16;;;;;;;1.03;0.93;;;2.10;97.30;;;;;;4979699;28;20496;-67
2024/01/14 09:35:42;;;;;;;2.00;1.90;;;2.10;97.30;;;;;;4981415;28;20425;-66
2024/01/14 09:38:09;;;;;;;1.07;0.97;;;2.10;97.30;;;;;;4972078;28;20434;-67
2024/01/14 09:40:35;;;;;;;1.20;1.10;;;2.10;97.30;;;;;;4981120;28;20437;-65
2024/01/14 09:43:04;;;;;;;1.10;1.00;;;2.10;97.30;;;;;;4971606;28;20440;-65
2024/01/14 09:45:34;;;;;;;1.00;0.90;;;2.10;97.30;;;;;;4973798;28;20516;-65
2024/01/14 09:48:01;;;;;;;1.40;1.20;;;2.20;97.30;;;;;;4977049;28;20429;-66
2024/01/14 09:50:27;;;;;;;2.53;1.73;;;2.20;97.30;;;;;;4974108;28;20436;-65
2024/01/14 09:52:55;;;;;;;1.33;1.30;;;2.20;97.30;;;;;;4979007;28;20425;-66
2024/01/14 09:55:20;;;;;;;1.83;1.73;;;2.20;97.30;;;;;;4975813;28;20637;-68
2024/01/14 09:57:49;;;;;;;3.30;1.77;;;2.20;97.30;;;;;;4970783;28;20430;-66
2024/01/14 10:00:15;;;;;;;2.23;2.00;;;2.30;97.30;;;;;;4967560;28;20706;-65
2024/01/14 10:02:41;;;;;;;2.47;1.67;;;2.30;97.30;;;;;;4972304;28;20460;-66
2024/01/14 10:05:08;;;;;;;2.13;1.93;;;2.30;97.30;;;;;;4975542;28;20466;-66
2024/01/14 10:07:34;;;;;;;5.90;2.53;;;2.40;97.30;;;;;;4970371;28;20433;-66
2024/01/14 10:10:00;;;;;;;5.43;1.70;;;2.40;97.30;;;;;;4973798;28;20455;-67
2024/01/14 10:12:29;;;;;;;3.63;2.80;;;2.40;97.30;;;;;;4974635;28;20474;-65
2024/01/14 10:14:58;;;;;;;3.30;3.07;;;2.40;97.30;;;;;;4970823;28;20477;-67
2024/01/14 10:17:24;;;;;;;1.50;1.40;;;2.40;97.30;;;;;;4970972;28;20441;-66
2024/01/14 10:19:54;;;;;;;3.27;2.23;;;2.40;97.30;;;;;;4974554;28;20864;-68
2024/01/14 10:22:21;;;;;;;2.33;2.20;;;2.50;97.30;;;;;;4970875;28;20457;-67
2024/01/14 10:24:51;;;;;;;6.13;3.83;;;2.50;97.30;;;;;;4971995;28;20430;-66
2024/01/14 10:27:17;;;;;;;2.80;2.60;;;2.50;97.30;;;;;;4976113;28;20488;-65
2024/01/14 10:29:43;;;;;;;3.80;2.20;;;2.60;97.30;;;;;;4974337;28;20430;-65
2024/01/14 10:32:08;;;;;;;2.67;2.53;;;2.60;97.30;;;;;;4971941;28;20490;-66
2024/01/14 10:34:34;;;;;;;1.80;1.70;;;2.50;97.30;;;;;;4970946;28;20201;-65
2024/01/14 10:37:01;;;;;;;1.23;1.10;;;2.60;97.30;;;;;;4972036;28;20190;-66
2024/01/14 10:39:30;;;;;;;49.57;2.90;;;2.60;97.30;;;;;;4971752;28;20183;-66
2024/01/14 10:41:56;;;;;;;4.70;1.27;;;2.60;97.30;;;;;;4972746;28;20548;-66
2024/01/14 10:44:21;;;;;;;1.20;1.10;;;2.60;97.30;;;;;;4970040;28;20568;-65
2024/01/14 10:46:53;;;;;;;1.37;1.27;;;2.60;97.30;;;;;;4975245;28;20191;-66
2024/01/14 10:49:25;;;;;;;2.23;2.07;;;2.60;97.30;;;;;;4970435;28;20218;-67
2024/01/14 10:52:08;;;;;;;2.60;1.73;;;2.60;97.30;;;;;;4974319;28;20481;-67
2024/01/14 10:54:36;;;;;;;2.00;1.90;;;2.60;97.30;;;;;;4971867;28;20520;-65
2024/01/14 10:57:22;;;;;;;2.03;1.70;;;2.60;97.30;;;;;;4968971;28;20857;-64
2024/01/14 10:59:52;;;;;;;1.10;1.00;;;2.70;97.30;;;;;;4962830;28;20775;-65
2024/01/14 11:02:18;;;;;;;1.00;0.90;;;2.70;97.30;;;;;;4970463;28;20454;-66
2024/01/14 11:04:44;;;;;;;2.30;1.27;;;2.70;97.30;;;;;;4970043;28;20657;-65
2024/01/14 11:07:10;;;;;;;3.73;2.83;;;2.80;97.30;;;;;;4970500;28;20679;-65
2024/01/14 11:09:37;;;;;;;2.47;2.27;;;2.80;97.30;;;;;;4971361;28;20436;-65
2024/01/14 11:12:10;;;;;;;1.20;1.10;;;2.80;97.30;;;;;;4970220;28;20466;-65
2024/01/14 11:14:45;;;;;;;3.93;3.73;;;2.80;97.30;;;;;;4971306;28;20436;-65
2024/01/14 11:17:41;;;;;;;1.50;1.27;;;2.80;97.30;;;;;;4970145;28;20457;-65
2024/01/14 11:20:15;;;;;;;1.50;1.40;;;2.80;97.30;;;;;;4969906;28;20426;-65
2024/01/14 11:22:42;;;;;;;1.93;1.83;;;2.80;97.30;;;;;;4989357;23;20492;-70
2024/01/14 11:25:16;;;;;;;2.50;2.00;;;2.80;97.30;;;;;;4981199;28;20464;-70
2024/01/14 11:27:41;;;;;;;2.60;1.90;;;2.80;97.30;;;;;;4976666;28;20473;-74
2024/01/14 11:30:16;;;;;;;2.30;1.80;;;2.70;97.30;;;;;;4967417;28;20464;-71
2024/01/14 11:32:41;;;;;;;1.27;1.10;;;2.70;97.30;;;;;;4972787;28;20276;-71
2024/01/14 11:35:09;;;;;;;4.10;1.37;;;2.70;97.30;;;;;;4968694;28;20441;-72
2024/01/14 11:37:39;;;;;;;1.70;1.60;;;2.70;97.30;;;;;;4969290;28;20221;-72
2024/01/14 11:40:07;;;;;;;3.13;2.07;;;2.60;97.30;;;;;;4972580;28;20465;-71
2024/01/14 11:42:34;;;;;;;1.43;1.33;;;2.60;97.30;;;;;;4971674;28;20414;-70
2024/01/14 11:45:01;;;;;;;1.60;1.50;;;2.50;97.30;;;;;;4973745;28;20484;-73
2024/01/14 11:47:36;;;;;;;9.00;2.10;;;2.50;97.30;;;;;;4969729;28;20433;-73
2024/01/14 11:50:03;;;;;;;3.33;1.80;;;2.50;97.30;;;;;;4972508;28;20828;-74
2024/01/14 11:52:29;;;;;;;2.07;1.93;;;2.50;97.30;;;;;;4971418;28;20470;-70
2024/01/14 11:54:55;;;;;;;1.27;1.17;;;2.50;97.30;;;;;;4976513;28;20658;-71
2024/01/14 11:57:23;;;;;;;1.73;1.57;;;2.50;97.30;;;;;;4972011;28;20175;-71
2024/01/14 11:59:50;;;;;;;5.00;2.30;;;2.50;97.30;;;;;;4970899;28;20431;-70
2024/01/14 12:02:16;;;;;;;1.20;1.10;;;2.50;97.30;;;;;;4973791;28;20448;-71
2024/01/14 12:04:45;;;;;;;1.60;1.50;;;2.60;97.30;;;;;;4968344;28;20418;-71
2024/01/14 12:07:11;;;;;;;1.97;1.87;;;2.60;97.30;;;;;;4974747;28;20507;-73
2024/01/14 12:09:37;;;;;;;1.63;1.53;;;2.70;97.30;;;;;;4975225;28;20856;-73
2024/01/14 12:12:06;;;;;;;12.43;4.07;;;2.70;97.30;;;;;;4977649;28;20840;-74
2024/01/14 12:14:37;;;;;;;1.27;1.17;;;2.70;97.30;;;;;;4968575;28;20417;-71
2024/01/14 12:17:09;;;;;;;1.93;1.67;;;2.70;97.30;;;;;;4975068;28;20948;-70
2024/01/14 12:19:36;;;;;;;1.13;1.03;;;2.70;97.30;;;;;;4976217;28;20417;-70
2024/01/14 12:22:02;;;;;;;2.03;1.50;;;2.70;97.30;;;;;;4974030;28;20836;-68
2024/01/14 12:24:30;;;;;;;3.60;2.20;;;2.80;97.30;;;;;;4969017;28;20433;-74
2024/01/14 12:26:59;;;;;;;5.30;2.33;;;2.80;97.30;;;;;;4972986;28;20860;-70
2024/01/14 12:29:25;;;;;;;2.43;1.87;;;2.80;97.30;;;;;;4974258;28;20925;-70
2024/01/14 12:31:50;;;;;;;1.17;1.07;;;2.80;97.30;;;;;;4973108;28;20479;-73
2024/01/14 12:34:16;;;;;;;3.30;1.63;;;2.80;97.30;;;;;;4969950;28;20304;-75
2024/01/14 12:36:42;;;;;;;1.50;1.40;;;2.80;97.30;;;;;;4970207;28;20841;-73
2024/01/14 12:39:09;;;;;;;1.13;1.03;;;2.70;97.30;;;;;;4967902;28;20186;-73
2024/01/14 12:41:34;;;;;;;1.90;1.80;;;2.70;97.30;;;;;;4971232;28;20520;-71
2024/01/14 12:44:01;;;;;;;1.20;1.10;;;2.70;97.30;;;;;;4968789;28;20494;-71
2024/01/14 12:46:26;;;;;;;5.23;2.70;;;2.70;97.30;;;;;;4966029;28;20879;-69
2024/01/14 12:48:52;;;;;;;1.17;1.07;;;2.60;97.30;;;;;;4970608;28;20527;-71
2024/01/14 12:51:20;;;;;;;1.00;0.90;;;2.60;97.30;;;;;;4966296;28;20216;-71
2024/01/14 12:53:54;;;;;;;1.10;1.00;;;2.60;97.30;;;;;;4967573;28;20209;-70
2024/01/14 12:56:23;;;;;;;7.10;3.23;;;2.60;97.30;;;;;;4960681;28;20436;-72
2024/01/14 12:58:49;;;;;;;1.70;1.57;;;2.60;97.30;;;;;;4967274;28;20429;-70
2024/01/14 13:01:15;;;;;;;3.30;3.13;;;2.70;97.30;;;;;;4967968;28;20456;-69
2024/01/14 13:03:41;;;;;;;2.10;1.80;;;2.70;97.30;;;;;;4966157;28;20418;-76
2024/01/14 13:06:08;;;;;;;1.00;0.90;;;2.70;97.30;;;;;;4968363;28;20549;-68
2024/01/14 13:08:34;;;;;;;1.10;1.00;;;2.70;97.30;;;;;;4968116;28;20437;-69
2024/01/14 13:11:00;;;;;;;1.47;1.37;;;2.70;97.30;;;;;;4967744;28;20457;-68
2024/01/14 13:13:27;;;;;;;1.50;1.40;;;2.70;97.30;;;;;;4969537;28;20446;-69
2024/01/14 13:15:52;;;;;;;2.50;2.30;;;2.70;97.30;;;;;;4967792;28;20426;-70
2024/01/14 13:18:18;;;;;;;2.87;1.50;;;2.70;97.30;;;;;;4969187;28;20761;-70
2024/01/14 13:20:44;;;;;;;3.43;1.83;;;2.80;97.30;;;;;;4968237;28;20671;-73
2024/01/14 13:23:09;;;;;;;4.30;2.57;;;2.80;97.30;;;;;;4967948;28;20230;-71
2024/01/14 13:25:35;;;;;;;1.37;1.27;;;2.80;97.30;;;;;;4969036;28;20771;-73
2024/01/14 13:28:01;;;;;;;1.93;1.83;;;2.80;97.30;;;;;;4966459;28;20171;-77
2024/01/14 13:30:27;;;;;;;4.00;1.77;;;2.80;97.30;;;;;;4968938;28;20484;-72
2024/01/14 13:32:52;;;;;;;3.00;2.60;;;2.80;97.30;;;;;;4967417;28;20210;-71
2024/01/14 13:35:18;;;;;;;1.83;1.73;;;2.80;97.30;;;;;;4969424;28;20418;-76
2024/01/14 13:37:44;;;;;;;1.47;1.40;;;2.80;97.30;;;;;;4968830;28;20179;-73
2024/01/14 13:40:10;;;;;;;1.47;1.37;;;2.80;97.30;;;;;;4967570;28;20460;-71
2024/01/14 13:42:36;;;;;;;1.23;1.13;;;2.80;97.30;;;;;;4967756;28;20206;-74
2024/01/14 13:45:01;;;;;;;1.73;1.63;;;2.80;97.30;;;;;;4968688;28;20430;-72
2024/01/14 13:47:27;;;;;;;2.47;2.27;;;2.80;97.30;;;;;;4966887;28;20248;-73
2024/01/14 13:49:53;;;;;;;1.40;1.30;;;2.70;97.30;;;;;;4968491;28;20203;-72
2024/01/14 13:52:18;;;;;;;5.20;1.93;;;2.70;97.30;;;;;;4967455;28;20218;-72
2024/01/14 13:54:44;;;;;;;1.17;1.07;;;2.70;97.30;;;;;;4967885;28;20209;-75
2024/01/14 13:57:10;;;;;;;2.23;2.03;;;2.70;97.30;;;;;;4968678;28;20183;-73
2024/01/14 13:59:37;;;;;;;1.20;1.10;;;2.60;97.30;;;;;;4967103;28;20488;-71
2024/01/14 14:02:03;;;;;;;2.00;1.90;;;2.60;97.30;;;;;;4967338;28;20356;-72
2024/01/14 14:04:28;;;;;;;1.60;1.50;;;2.60;97.30;;;;;;4972326;28;20417;-72
2024/01/14 14:06:55;;;;;;;2.10;1.97;;;2.50;97.30;;;;;;4970517;28;20429;-72
2024/01/14 14:09:20;;;;;;;1.87;1.77;;;2.50;97.30;;;;;;4969776;28;20186;-74
2024/01/14 14:11:46;;;;;;;1.00;0.90;;;2.50;97.30;;;;;;4969106;28;20474;-75
2024/01/14 14:14:11;;;;;;;1.40;1.30;;;2.50;97.30;;;;;;4971574;28;20190;-75
2024/01/14 14:16:37;;;;;;;1.57;1.43;;;2.60;97.30;;;;;;4970628;28;20281;-73
2024/01/14 14:19:04;;;;;;;1.60;1.43;;;2.60;97.30;;;;;;4970434;28;20549;-70
2024/01/14 14:21:32;;;;;;;5.50;2.27;;;2.60;97.30;;;;;;4971996;28;20474;-71
2024/01/14 14:23:58;;;;;;;2.43;1.40;;;2.60;97.30;;;;;;4970711;28;20434;-72
2024/01/14 14:26:24;;;;;;;0.90;0.80;;;2.70;97.30;;;;;;4971812;28;20425;-75
2024/01/14 14:28:50;;;;;;;1.50;1.40;;;2.70;97.30;;;;;;4968436;28;20214;-71
2024/01/14 14:31:17;;;;;;;1.30;1.30;;;2.70;97.30;;;;;;4969506;28;20612;-72
2024/01/14 14:33:43;;;;;;;15.97;3.07;;;2.70;97.30;;;;;;4967569;28;20265;-69
2024/01/14 14:36:08;;;;;;;4.50;2.90;;;2.70;97.30;;;;;;4967650;28;20433;-76
2024/01/14 14:38:34;;;;;;;3.63;1.97;;;2.70;97.30;;;;;;4967691;28;20511;-71
2024/01/14 14:41:03;;;;;;;3.40;2.40;;;2.70;97.30;;;;;;4969182;28;20288;-77
2024/01/14 14:43:28;;;;;;;1.37;1.27;;;2.70;97.30;;;;;;4969755;28;20187;-72
2024/01/14 14:45:55;;;;;;;1.30;1.20;;;2.70;97.30;;;;;;4971050;28;20521;-71
2024/01/14 14:48:20;;;;;;;1.40;1.30;;;2.70;97.30;;;;;;4971471;28;20261;-71
2024/01/14 14:50:46;;;;;;;1.97;1.23;;;2.70;97.30;;;;;;4969846;28;20600;-70
2024/01/14 14:53:11;;;;;;;1.20;1.10;;;2.70;97.30;;;;;;4971909;28;20194;-77
2024/01/14 14:55:39;;;;;;;1.43;1.00;;;2.70;97.30;;;;;;4970368;28;20182;-72
2024/01/14 14:58:05;;;;;;;1.33;1.23;;;2.70;97.30;;;;;;4969780;28;20665;-69
2024/01/14 15:00:30;;;;;;;1.40;1.30;;;2.70;97.30;;;;;;4970265;28;20445;-70
2024/01/14 15:02:56;;;;;;;2.43;1.90;;;2.70;97.30;;;;;;4971164;28;20178;-70
2024/01/14 15:05:21;;;;;;;1.27;1.10;;;2.70;97.30;;;;;;4971454;28;20187;-70
2024/01/14 15:07:47;;;;;;;1.50;1.40;;;2.60;97.30;;;;;;4969776;28;20271;-74
2024/01/14 15:10:13;;;;;;;2.03;1.90;;;2.60;97.30;;;;;;4971527;28;20178;-70
2024/01/14 15:12:39;;;;;;;1.60;1.50;;;2.60;97.30;;;;;;4971007;28;20452;-71
2024/01/14 15:15:05;;;;;;;0.93;0.83;;;2.60;97.30;;;;;;4969284;28;21149;-69
2024/01/14 15:17:30;;;;;;;2.87;1.63;;;2.60;97.30;;;;;;4971410;28;20179;-73
2024/01/14 15:19:56;;;;;;;1.80;1.70;;;2.60;97.30;;;;;;4970032;28;20497;-70
2024/01/14 15:22:21;;;;;;;1.20;1.10;;;2.60;97.30;;;;;;4969832;28;20242;-74
2024/01/14 15:24:47;;;;;;;4.43;1.73;;;2.60;97.30;;;;;;4971795;28;20796;-70
2024/01/14 15:27:12;;;;;;;2.80;1.93;;;2.60;97.30;;;;;;4969807;28;20225;-70
2024/01/14 15:29:38;;;;;;;3.50;2.63;;;2.60;97.30;;;;;;4970152;28;20616;-70
2024/01/14 15:32:04;;;;;;;1.33;1.23;;;2.60;97.30;;;;;;4969079;28;20221;-70
2024/01/14 15:34:30;;;;;;;1.03;0.93;;;2.50;97.30;;;;;;4968946;28;20571;-72
2024/01/14 15:36:55;;;;;;;1.00;0.90;;;2.40;97.30;;;;;;4969090;28;20433;-70
2024/01/14 15:39:21;;;;;;;4.60;1.10;;;2.40;97.30;;;;;;4969754;28;20186;-71
2024/01/14 15:41:46;;;;;;;1.00;0.90;;;2.40;97.30;;;;;;4969493;28;20213;-70
2024/01/14 15:44:12;;;;;;;5.03;2.73;;;2.40;97.30;;;;;;4971028;28;20191;-75
2024/01/14 15:46:38;;;;;;;1.73;1.63;;;2.40;97.30;;;;;;4971167;28;20198;-68
2024/01/14 15:49:03;;;;;;;2.70;2.50;;;2.40;97.30;;;;;;4968870;28;20938;-76
2024/01/14 15:51:30;;;;;;;1.00;1.00;;;2.40;97.30;;;;;;4970986;28;20214;-73
2024/01/14 15:53:55;;;;;;;2.50;2.30;;;2.40;97.30;;;;;;4970550;28;20560;-75
2024/01/14 15:56:21;;;;;;;4.70;2.20;;;2.40;97.30;;;;;;4970999;28;20426;-71
2024/01/14 15:58:46;;;;;;;1.10;1.00;;;2.40;97.30;;;;;;4969953;28;20182;-70
2024/01/14 16:01:13;;;;;;;3.27;3.07;;;2.40;97.30;;;;;;4972224;28;20198;-71
2024/01/14 16:03:41;;;;;;;3.00;1.93;;;2.40;97.30;;;;;;4970888;28;20195;-72
2024/01/14 16:06:07;;;;;;;2.90;1.63;;;2.40;97.30;;;;;;4970375;28;20807;-72
2024/01/14 16:08:34;;;;;;;5.70;3.17;;;2.40;97.30;;;;;;4970186;28;20468;-71
2024/01/14 16:10:59;;;;;;;1.50;1.40;;;2.40;97.30;;;;;;4969367;28;20473;-71
2024/01/14 16:13:25;;;;;;;4.20;2.23;;;2.40;97.30;;;;;;4969809;28;20492;-70
2024/01/14 16:15:54;;;;;;;2.03;1.90;;;2.40;97.30;;;;;;4971031;28;20194;-73
2024/01/14 16:18:19;;;;;;;3.70;2.97;;;2.40;97.30;;;;;;4969808;28;20566;-74
2024/01/14 16:20:45;;;;;;;1.47;1.37;;;2.40;97.30;;;;;;4969620;28;20450;-71
2024/01/14 16:23:10;;;;;;;3.57;1.73;;;2.30;97.30;;;;;;4970629;28;20238;-71
2024/01/14 16:25:36;;;;;;;2.73;2.53;;;2.30;97.30;;;;;;4970280;28;20197;-72
2024/01/14 16:28:02;;;;;;;2.50;2.30;;;2.30;97.30;;;;;;4969151;28;20182;-72
2024/01/14 16:30:28;;;;;;;6.93;2.67;;;2.30;97.30;;;;;;4969210;28;20442;-71
2024/01/14 16:32:55;;;;;;;1.83;1.73;;;2.30;97.30;;;;;;4969408;28;20846;-71
2024/01/14 16:35:21;;;;;;;1.57;1.47;;;2.30;97.30;;;;;;4970668;28;20422;-73
2024/01/14 16:37:46;;;;;;;1.70;1.53;;;2.20;97.30;;;;;;4968580;28;20949;-71
2024/01/14 16:40:12;;;;;;;1.20;1.10;;;2.20;97.30;;;;;;4968632;28;20501;-78
2024/01/14 16:42:38;;;;;;;1.30;1.27;;;2.20;97.30;;;;;;4968827;28;20194;-72
2024/01/14 16:45:04;;;;;;;4.70;2.30;;;2.20;97.30;;;;;;4969254;28;20717;-72
2024/01/14 16:47:29;;;;;;;1.90;1.70;;;2.20;97.30;;;;;;4971759;28;20213;-73
2024/01/14 16:49:55;;;;;;;1.60;1.50;;;2.20;97.30;;;;;;4971311;28;20950;-76
2024/01/14 16:52:22;;;;;;;2.43;1.73;;;2.20;97.30;;;;;;4968143;28;20713;-71
2024/01/14 16:54:48;;;;;;;4.03;2.17;;;2.20;97.30;;;;;;4969427;28;20261;-70
2024/01/14 16:57:13;;;;;;;1.57;1.47;;;2.20;97.30;;;;;;4970200;28;20560;-71
2024/01/14 16:59:39;;;;;;;1.30;1.20;;;2.20;97.30;;;;;;4968237;28;20186;-71
2024/01/14 17:02:05;;;;;;;0.90;0.80;;;2.10;97.30;;;;;;4968547;28;20214;-70
2024/01/14 17:04:30;;;;;;;1.77;1.67;;;2.10;97.30;;;;;;4969878;28;20189;-73
2024/01/14 17:06:56;;;;;;;4.20;2.10;;;2.10;97.30;;;;;;4967834;28;20433;-71
2024/01/14 17:09:22;;;;;;;1.73;1.63;;;2.00;97.30;;;;;;4969453;28;20241;-73
2024/01/14 17:11:47;;;;;;;1.73;1.63;;;2.00;97.30;;;;;;4971659;28;20210;-70
2024/01/14 17:14:13;;;;;;;1.47;1.37;;;2.00;97.30;;;;;;4969454;28;20179;-71
2024/01/14 17:16:38;;;;;;;0.93;0.83;;;2.00;97.30;;;;;;4967349;28;20190;-70
2024/01/14 17:19:04;;;;;;;2.70;2.50;;;1.90;97.30;;;;;;4969084;28;20193;-72
2024/01/14 17:21:30;;;;;;;2.17;1.80;;;1.90;97.30;;;;;;4972611;28;20604;-74
2024/01/14 17:23:56;;;;;;;4.13;1.40;;;1.80;97.30;;;;;;4969809;28;20692;-73
2024/01/14 17:26:22;;;;;;;1.00;0.90;;;1.80;97.30;;;;;;4968045;28;20204;-72
2024/01/14 17:28:47;;;;;;;1.20;1.10;;;1.90;97.30;;;;;;4967924;28;20525;-71
2024/01/14 17:31:15;;;;;;;3.90;2.70;;;1.90;97.30;;;;;;4969594;28;20919;-71
2024/01/14 17:33:41;;;;;;;2.93;2.73;;;1.90;97.30;;;;;;4968170;28;20651;-71
2024/01/14 17:36:14;;;;;;;2.60;2.40;;;1.90;97.30;;;;;;4975814;28;20433;-72
2024/01/14 17:38:41;;;;;;;3.03;2.13;;;1.90;97.30;;;;;;4980111;28;20845;-71
2024/01/14 17:41:10;;;;;;;4.33;2.27;;;2.00;97.30;;;;;;4979383;28;20453;-72
2024/01/14 17:43:36;;;;;;;6.83;1.93;;;1.90;97.30;;;;;;4980886;28;20872;-70
2024/01/14 17:46:03;;;;;;;3.10;1.40;;;2.00;97.30;;;;;;4987077;28;20433;-74
2024/01/14 17:48:29;;;;;;;1.47;1.37;;;2.00;97.30;;;;;;4971446;28;20437;-70
2024/01/14 17:50:55;;;;;;;2.23;2.03;;;2.00;97.30;;;;;;4986013;28;21175;-74
2024/01/14 17:53:24;;;;;;;3.47;1.73;;;2.00;97.30;;;;;;4977855;28;20227;-71
2024/01/14 17:55:51;;;;;;;0.90;0.80;;;2.00;97.30;;;;;;4972664;28;20429;-72
2024/01/14 17:58:17;;;;;;;1.30;1.20;;;2.00;97.30;;;;;;4971638;28;20421;-75
2024/01/14 18:00:43;;;;;;;1.90;1.77;;;2.00;97.30;;;;;;4978540;28;20448;-75